sensor_id;sensor_type;location;lat;lon;timestamp;P1;durP1;ratioP1;P2;durP2;ratioP2
2620;SDS011;1320;48.128;11.592;2023-02-15T00:01:15;5.20;;;3.93;;
2620;SDS011;1320;48.128;11.592;2023-02-15T00:03:41;6.40;;;3.60;;
2620;SDS011;1320;48.128;11.592;2023-02-15T00:06:07;6.50;;;5.20;;
2620;SDS011;1320;48.128;11.592;2023-02-15T00:08:32;7.80;;;4.63;;
2620;SDS011;1320;48.128;11.592;2023-02-15T00:11:05;7.23;;;4.47;;
2620;SDS011;1320;48.128;11.592;2023-02-15T00:13:31;7.35;;;5.85;;
2620;SDS011;1320;48.128;11.592;2023-02-15T00:16:01;7.80;;;4.20;;
2620;SDS011;1320;48.128;11.592;2023-02-15T00:18:28;9.35;;;5.30;;
2620;SDS011;1320;48.128;11.592;2023-02-15T00:20:54;6.30;;;4.47;;
2620;SDS011;1320;48.128;11.592;2023-02-15T00:23:19;7.97;;;7.13;;
2620;SDS011;1320;48.128;11.592;2023-02-15T00:25:45;10.13;;;5.70;;
2620;SDS011;1320;48.128;11.592;2023-02-15T00:28:10;8.57;;;7.33;;
2620;SDS011;1320;48.128;11.592;2023-02-15T00:30:36;9.57;;;5.03;;
2620;SDS011;1320;48.128;11.592;2023-02-15T00:33:02;5.30;;;4.20;;
2620;SDS011;1320;48.128;11.592;2023-02-15T00:35:27;7.57;;;5.40;;
2620;SDS011;1320;48.128;11.592;2023-02-15T00:37:53;5.87;;;5.27;;
2620;SDS011;1320;48.128;11.592;2023-02-15T00:40:18;6.13;;;4.57;;
2620;SDS011;1320;48.128;11.592;2023-02-15T00:42:44;9.77;;;4.47;;
2620;SDS011;1320;48.128;11.592;2023-02-15T00:45:10;9.50;;;5.17;;
2620;SDS011;1320;48.128;11.592;2023-02-15T00:47:35;9.10;;;6.33;;
2620;SDS011;1320;48.128;11.592;2023-02-15T00:50:01;4.83;;;4.50;;
2620;SDS011;1320;48.128;11.592;2023-02-15T00:52:28;7.43;;;5.63;;
2620;SDS011;1320;48.128;11.592;2023-02-15T00:54:53;6.30;;;4.27;;
2620;SDS011;1320;48.128;11.592;2023-02-15T00:57:19;5.10;;;4.60;;
2620;SDS011;1320;48.128;11.592;2023-02-15T00:59:45;5.07;;;4.30;;
2620;SDS011;1320;48.128;11.592;2023-02-15T01:02:10;7.70;;;5.10;;
2620;SDS011;1320;48.128;11.592;2023-02-15T01:04:36;7.23;;;4.70;;
2620;SDS011;1320;48.128;11.592;2023-02-15T01:07:02;4.20;;;3.70;;
2620;SDS011;1320;48.128;11.592;2023-02-15T01:09:28;9.82;;;4.38;;
2620;SDS011;1320;48.128;11.592;2023-02-15T01:11:54;4.60;;;4.00;;
2620;SDS011;1320;48.128;11.592;2023-02-15T01:14:20;10.83;;;5.00;;
2620;SDS011;1320;48.128;11.592;2023-02-15T01:16:46;5.07;;;3.80;;
2620;SDS011;1320;48.128;11.592;2023-02-15T01:19:11;5.20;;;4.13;;
2620;SDS011;1320;48.128;11.592;2023-02-15T01:21:37;4.97;;;4.05;;
2620;SDS011;1320;48.128;11.592;2023-02-15T01:24:10;4.70;;;4.20;;
2620;SDS011;1320;48.128;11.592;2023-02-15T01:26:37;5.47;;;3.60;;
2620;SDS011;1320;48.128;11.592;2023-02-15T01:29:02;5.73;;;3.80;;
2620;SDS011;1320;48.128;11.592;2023-02-15T01:31:28;6.80;;;3.90;;
2620;SDS011;1320;48.128;11.592;2023-02-15T01:33:54;5.40;;;4.67;;
2620;SDS011;1320;48.128;11.592;2023-02-15T01:36:19;5.53;;;4.07;;
2620;SDS011;1320;48.128;11.592;2023-02-15T01:38:45;7.07;;;4.27;;
2620;SDS011;1320;48.128;11.592;2023-02-15T01:41:11;4.43;;;4.00;;
2620;SDS011;1320;48.128;11.592;2023-02-15T01:46:43;5.90;;;3.50;;
2620;SDS011;1320;48.128;11.592;2023-02-15T01:49:17;5.80;;;4.50;;
2620;SDS011;1320;48.128;11.592;2023-02-15T01:51:47;9.73;;;5.50;;
2620;SDS011;1320;48.128;11.592;2023-02-15T01:56:44;7.10;;;5.03;;
2620;SDS011;1320;48.128;11.592;2023-02-15T01:59:12;4.97;;;4.47;;
2620;SDS011;1320;48.128;11.592;2023-02-15T02:01:44;4.53;;;4.10;;
2620;SDS011;1320;48.128;11.592;2023-02-15T02:04:13;4.03;;;3.10;;
2620;SDS011;1320;48.128;11.592;2023-02-15T02:06:44;8.13;;;4.97;;
2620;SDS011;1320;48.128;11.592;2023-02-15T02:09:12;5.82;;;4.07;;
2620;SDS011;1320;48.128;11.592;2023-02-15T02:11:39;21.13;;;3.83;;
2620;SDS011;1320;48.128;11.592;2023-02-15T02:14:05;7.15;;;4.72;;
2620;SDS011;1320;48.128;11.592;2023-02-15T02:19:25;7.80;;;4.95;;
2620;SDS011;1320;48.128;11.592;2023-02-15T02:24:53;12.30;;;5.75;;
2620;SDS011;1320;48.128;11.592;2023-02-15T02:33:57;4.35;;;3.05;;
2620;SDS011;1320;48.128;11.592;2023-02-15T02:38:47;11.48;;;4.07;;
2620;SDS011;1320;48.128;11.592;2023-02-15T02:44:40;5.80;;;2.65;;
2620;SDS011;1320;48.128;11.592;2023-02-15T02:49:51;5.63;;;4.90;;
2620;SDS011;1320;48.128;11.592;2023-02-15T02:55:10;4.93;;;4.18;;
2620;SDS011;1320;48.128;11.592;2023-02-15T02:57:54;6.22;;;4.35;;
2620;SDS011;1320;48.128;11.592;2023-02-15T03:00:27;6.93;;;3.72;;
2620;SDS011;1320;48.128;11.592;2023-02-15T03:03:11;8.95;;;4.43;;
2620;SDS011;1320;48.128;11.592;2023-02-15T03:05:41;5.78;;;4.35;;
2620;SDS011;1320;48.128;11.592;2023-02-15T03:08:10;7.50;;;4.30;;
2620;SDS011;1320;48.128;11.592;2023-02-15T03:10:38;8.07;;;5.80;;
2620;SDS011;1320;48.128;11.592;2023-02-15T03:13:05;4.10;;;3.75;;
2620;SDS011;1320;48.128;11.592;2023-02-15T03:15:36;4.95;;;4.00;;
2620;SDS011;1320;48.128;11.592;2023-02-15T03:18:24;5.70;;;4.75;;
2620;SDS011;1320;48.128;11.592;2023-02-15T03:20:55;6.65;;;4.10;;
2620;SDS011;1320;48.128;11.592;2023-02-15T03:23:23;9.05;;;6.60;;
2620;SDS011;1320;48.128;11.592;2023-02-15T03:25:57;8.55;;;4.72;;
2620;SDS011;1320;48.128;11.592;2023-02-15T03:28:32;6.65;;;4.45;;
2620;SDS011;1320;48.128;11.592;2023-02-15T03:31:04;4.55;;;4.10;;
2620;SDS011;1320;48.128;11.592;2023-02-15T03:33:31;5.65;;;3.95;;
2620;SDS011;1320;48.128;11.592;2023-02-15T03:36:01;7.97;;;5.55;;
2620;SDS011;1320;48.128;11.592;2023-02-15T03:38:55;10.15;;;5.30;;
2620;SDS011;1320;48.128;11.592;2023-02-15T03:41:27;4.32;;;3.33;;
2620;SDS011;1320;48.128;11.592;2023-02-15T03:44:00;7.43;;;5.38;;
2620;SDS011;1320;48.128;11.592;2023-02-15T03:46:34;4.88;;;3.15;;
2620;SDS011;1320;48.128;11.592;2023-02-15T03:52:02;5.93;;;3.97;;
2620;SDS011;1320;48.128;11.592;2023-02-15T03:54:31;5.65;;;4.70;;
2620;SDS011;1320;48.128;11.592;2023-02-15T03:57:22;7.15;;;5.75;;
2620;SDS011;1320;48.128;11.592;2023-02-15T04:00:15;5.57;;;5.07;;
2620;SDS011;1320;48.128;11.592;2023-02-15T04:05:41;7.35;;;5.80;;
2620;SDS011;1320;48.128;11.592;2023-02-15T04:08:08;5.20;;;4.00;;
2620;SDS011;1320;48.128;11.592;2023-02-15T04:10:35;7.97;;;3.60;;
2620;SDS011;1320;48.128;11.592;2023-02-15T04:13:29;5.05;;;4.55;;
2620;SDS011;1320;48.128;11.592;2023-02-15T04:15:55;6.93;;;4.00;;
2620;SDS011;1320;48.128;11.592;2023-02-15T04:18:28;4.68;;;4.25;;
2620;SDS011;1320;48.128;11.592;2023-02-15T04:21:23;4.60;;;4.15;;
2620;SDS011;1320;48.128;11.592;2023-02-15T04:24:08;4.47;;;3.92;;
2620;SDS011;1320;48.128;11.592;2023-02-15T04:26:53;4.70;;;4.30;;
2620;SDS011;1320;48.128;11.592;2023-02-15T04:29:20;5.40;;;3.70;;
2620;SDS011;1320;48.128;11.592;2023-02-15T04:31:46;8.02;;;4.90;;
2620;SDS011;1320;48.128;11.592;2023-02-15T04:34:13;6.57;;;4.78;;
2620;SDS011;1320;48.128;11.592;2023-02-15T04:36:39;5.13;;;4.15;;
2620;SDS011;1320;48.128;11.592;2023-02-15T04:39:05;6.22;;;5.40;;
2620;SDS011;1320;48.128;11.592;2023-02-15T04:41:32;4.60;;;3.78;;
2620;SDS011;1320;48.128;11.592;2023-02-15T04:43:58;4.30;;;3.70;;
2620;SDS011;1320;48.128;11.592;2023-02-15T04:46:25;6.22;;;3.63;;
2620;SDS011;1320;48.128;11.592;2023-02-15T04:48:51;6.43;;;5.32;;
2620;SDS011;1320;48.128;11.592;2023-02-15T04:51:17;5.82;;;5.30;;
2620;SDS011;1320;48.128;11.592;2023-02-15T04:53:43;8.90;;;5.50;;
2620;SDS011;1320;48.128;11.592;2023-02-15T04:56:09;7.90;;;5.23;;
2620;SDS011;1320;48.128;11.592;2023-02-15T04:58:35;5.80;;;4.83;;
2620;SDS011;1320;48.128;11.592;2023-02-15T05:01:01;8.20;;;7.18;;
2620;SDS011;1320;48.128;11.592;2023-02-15T05:03:27;5.88;;;3.33;;
2620;SDS011;1320;48.128;11.592;2023-02-15T05:05:53;7.43;;;4.03;;
2620;SDS011;1320;48.128;11.592;2023-02-15T05:08:19;4.57;;;4.17;;
2620;SDS011;1320;48.128;11.592;2023-02-15T05:10:44;3.67;;;3.27;;
2620;SDS011;1320;48.128;11.592;2023-02-15T05:13:12;6.38;;;4.68;;
2620;SDS011;1320;48.128;11.592;2023-02-15T05:15:37;12.97;;;5.50;;
2620;SDS011;1320;48.128;11.592;2023-02-15T05:18:03;5.30;;;4.77;;
2620;SDS011;1320;48.128;11.592;2023-02-15T05:20:30;5.25;;;4.72;;
2620;SDS011;1320;48.128;11.592;2023-02-15T05:22:56;8.50;;;4.83;;
2620;SDS011;1320;48.128;11.592;2023-02-15T05:25:22;5.73;;;3.43;;
2620;SDS011;1320;48.128;11.592;2023-02-15T05:28:08;7.03;;;6.32;;
2620;SDS011;1320;48.128;11.592;2023-02-15T05:30:47;8.88;;;5.25;;
2620;SDS011;1320;48.128;11.592;2023-02-15T05:33:15;5.85;;;4.03;;
2620;SDS011;1320;48.128;11.592;2023-02-15T05:35:40;3.87;;;3.53;;
2620;SDS011;1320;48.128;11.592;2023-02-15T05:38:06;6.10;;;3.70;;
2620;SDS011;1320;48.128;11.592;2023-02-15T05:40:32;11.00;;;5.20;;
2620;SDS011;1320;48.128;11.592;2023-02-15T05:42:58;6.00;;;4.90;;
2620;SDS011;1320;48.128;11.592;2023-02-15T05:45:23;5.17;;;3.90;;
2620;SDS011;1320;48.128;11.592;2023-02-15T05:47:49;4.43;;;4.03;;
2620;SDS011;1320;48.128;11.592;2023-02-15T05:50:15;10.03;;;4.50;;
2620;SDS011;1320;48.128;11.592;2023-02-15T05:52:41;7.77;;;5.90;;
2620;SDS011;1320;48.128;11.592;2023-02-15T05:55:07;5.27;;;4.20;;
2620;SDS011;1320;48.128;11.592;2023-02-15T05:57:37;8.98;;;5.40;;
2620;SDS011;1320;48.128;11.592;2023-02-15T06:00:03;5.23;;;4.40;;
2620;SDS011;1320;48.128;11.592;2023-02-15T06:02:33;6.40;;;4.40;;
2620;SDS011;1320;48.128;11.592;2023-02-15T06:04:59;7.55;;;5.65;;
2620;SDS011;1320;48.128;11.592;2023-02-15T06:07:25;4.90;;;4.07;;
2620;SDS011;1320;48.128;11.592;2023-02-15T06:09:51;7.57;;;4.47;;
2620;SDS011;1320;48.128;11.592;2023-02-15T06:12:16;7.83;;;5.20;;
2620;SDS011;1320;48.128;11.592;2023-02-15T06:14:42;4.80;;;3.87;;
2620;SDS011;1320;48.128;11.592;2023-02-15T06:17:07;9.83;;;6.10;;
2620;SDS011;1320;48.128;11.592;2023-02-15T06:19:33;7.27;;;4.67;;
2620;SDS011;1320;48.128;11.592;2023-02-15T06:21:59;6.13;;;4.20;;
2620;SDS011;1320;48.128;11.592;2023-02-15T06:24:30;7.30;;;4.20;;
2620;SDS011;1320;48.128;11.592;2023-02-15T06:27:03;8.25;;;4.50;;
2620;SDS011;1320;48.128;11.592;2023-02-15T06:29:29;6.57;;;4.10;;
2620;SDS011;1320;48.128;11.592;2023-02-15T06:31:55;9.10;;;6.40;;
2620;SDS011;1320;48.128;11.592;2023-02-15T06:34:20;5.87;;;4.50;;
2620;SDS011;1320;48.128;11.592;2023-02-15T06:36:46;6.30;;;5.13;;
2620;SDS011;1320;48.128;11.592;2023-02-15T06:39:11;5.43;;;4.10;;
2620;SDS011;1320;48.128;11.592;2023-02-15T06:41:37;5.80;;;5.30;;
2620;SDS011;1320;48.128;11.592;2023-02-15T06:44:03;5.80;;;4.72;;
2620;SDS011;1320;48.128;11.592;2023-02-15T06:46:29;7.40;;;4.70;;
2620;SDS011;1320;48.128;11.592;2023-02-15T06:48:55;9.00;;;3.97;;
2620;SDS011;1320;48.128;11.592;2023-02-15T06:51:20;8.83;;;5.97;;
2620;SDS011;1320;48.128;11.592;2023-02-15T06:53:46;7.30;;;5.83;;
2620;SDS011;1320;48.128;11.592;2023-02-15T06:56:12;15.03;;;6.43;;
2620;SDS011;1320;48.128;11.592;2023-02-15T06:58:38;8.07;;;5.77;;
2620;SDS011;1320;48.128;11.592;2023-02-15T07:01:05;7.47;;;6.05;;
2620;SDS011;1320;48.128;11.592;2023-02-15T07:03:31;6.70;;;4.75;;
2620;SDS011;1320;48.128;11.592;2023-02-15T07:05:58;10.18;;;4.47;;
2620;SDS011;1320;48.128;11.592;2023-02-15T07:08:25;14.88;;;6.53;;
2620;SDS011;1320;48.128;11.592;2023-02-15T07:10:52;9.27;;;5.70;;
2620;SDS011;1320;48.128;11.592;2023-02-15T07:13:19;6.70;;;5.88;;
2620;SDS011;1320;48.128;11.592;2023-02-15T07:15:48;11.48;;;6.95;;
2620;SDS011;1320;48.128;11.592;2023-02-15T07:18:14;6.47;;;4.60;;
2620;SDS011;1320;48.128;11.592;2023-02-15T07:20:40;11.13;;;6.60;;
2620;SDS011;1320;48.128;11.592;2023-02-15T07:23:06;11.27;;;5.18;;
2620;SDS011;1320;48.128;11.592;2023-02-15T07:25:33;6.93;;;4.63;;
2620;SDS011;1320;48.128;11.592;2023-02-15T07:27:59;7.23;;;5.17;;
2620;SDS011;1320;48.128;11.592;2023-02-15T07:30:26;9.45;;;6.50;;
2620;SDS011;1320;48.128;11.592;2023-02-15T07:32:59;9.27;;;5.90;;
2620;SDS011;1320;48.128;11.592;2023-02-15T07:35:50;7.85;;;6.40;;
2620;SDS011;1320;48.128;11.592;2023-02-15T07:38:17;11.55;;;5.55;;
2620;SDS011;1320;48.128;11.592;2023-02-15T07:40:47;6.40;;;5.57;;
2620;SDS011;1320;48.128;11.592;2023-02-15T07:43:13;8.07;;;6.03;;
2620;SDS011;1320;48.128;11.592;2023-02-15T07:45:39;9.25;;;4.82;;
2620;SDS011;1320;48.128;11.592;2023-02-15T07:48:05;9.67;;;6.20;;
2620;SDS011;1320;48.128;11.592;2023-02-15T07:50:31;11.68;;;6.55;;
2620;SDS011;1320;48.128;11.592;2023-02-15T07:52:57;8.40;;;5.05;;
2620;SDS011;1320;48.128;11.592;2023-02-15T07:55:23;10.68;;;6.07;;
2620;SDS011;1320;48.128;11.592;2023-02-15T07:57:49;12.30;;;7.20;;
2620;SDS011;1320;48.128;11.592;2023-02-15T08:00:16;7.10;;;4.90;;
2620;SDS011;1320;48.128;11.592;2023-02-15T08:02:55;7.85;;;4.70;;
2620;SDS011;1320;48.128;11.592;2023-02-15T08:05:40;9.63;;;6.18;;
2620;SDS011;1320;48.128;11.592;2023-02-15T08:08:07;13.30;;;7.75;;
2620;SDS011;1320;48.128;11.592;2023-02-15T08:10:35;8.75;;;6.22;;
2620;SDS011;1320;48.128;11.592;2023-02-15T08:13:19;8.00;;;6.78;;
2620;SDS011;1320;48.128;11.592;2023-02-15T08:15:51;7.13;;;6.43;;
2620;SDS011;1320;48.128;11.592;2023-02-15T08:18:17;9.00;;;6.32;;
2620;SDS011;1320;48.128;11.592;2023-02-15T08:20:42;7.40;;;5.60;;
2620;SDS011;1320;48.128;11.592;2023-02-15T08:23:13;11.70;;;7.00;;
2620;SDS011;1320;48.128;11.592;2023-02-15T08:25:39;10.55;;;5.82;;
2620;SDS011;1320;48.128;11.592;2023-02-15T08:28:05;14.40;;;5.63;;
2620;SDS011;1320;48.128;11.592;2023-02-15T08:30:33;7.53;;;5.33;;
2620;SDS011;1320;48.128;11.592;2023-02-15T08:32:58;5.85;;;4.75;;
2620;SDS011;1320;48.128;11.592;2023-02-15T08:35:24;6.83;;;4.10;;
2620;SDS011;1320;48.128;11.592;2023-02-15T08:37:50;10.37;;;5.33;;
2620;SDS011;1320;48.128;11.592;2023-02-15T08:40:16;13.10;;;6.30;;
2620;SDS011;1320;48.128;11.592;2023-02-15T08:42:42;6.73;;;5.20;;
2620;SDS011;1320;48.128;11.592;2023-02-15T08:45:07;6.97;;;5.30;;
2620;SDS011;1320;48.128;11.592;2023-02-15T08:47:33;8.37;;;7.10;;
2620;SDS011;1320;48.128;11.592;2023-02-15T08:49:59;9.03;;;6.23;;
2620;SDS011;1320;48.128;11.592;2023-02-15T08:52:24;5.80;;;5.30;;
2620;SDS011;1320;48.128;11.592;2023-02-15T08:54:50;10.00;;;5.60;;
2620;SDS011;1320;48.128;11.592;2023-02-15T08:57:16;8.25;;;6.20;;
2620;SDS011;1320;48.128;11.592;2023-02-15T08:59:42;8.77;;;6.17;;
2620;SDS011;1320;48.128;11.592;2023-02-15T09:02:09;9.60;;;6.63;;
2620;SDS011;1320;48.128;11.592;2023-02-15T09:04:35;8.82;;;6.13;;
2620;SDS011;1320;48.128;11.592;2023-02-15T09:07:00;9.80;;;8.80;;
2620;SDS011;1320;48.128;11.592;2023-02-15T09:09:29;9.00;;;7.35;;
2620;SDS011;1320;48.128;11.592;2023-02-15T09:11:56;8.85;;;5.30;;
2620;SDS011;1320;48.128;11.592;2023-02-15T09:14:21;9.43;;;6.83;;
2620;SDS011;1320;48.128;11.592;2023-02-15T09:16:49;8.05;;;5.95;;
2620;SDS011;1320;48.128;11.592;2023-02-15T09:19:17;10.65;;;7.40;;
2620;SDS011;1320;48.128;11.592;2023-02-15T09:21:44;9.93;;;7.85;;
2620;SDS011;1320;48.128;11.592;2023-02-15T09:24:11;13.27;;;6.93;;
2620;SDS011;1320;48.128;11.592;2023-02-15T09:26:39;9.05;;;7.40;;
2620;SDS011;1320;48.128;11.592;2023-02-15T09:29:07;6.97;;;6.25;;
2620;SDS011;1320;48.128;11.592;2023-02-15T09:31:38;9.23;;;6.95;;
2620;SDS011;1320;48.128;11.592;2023-02-15T09:34:06;10.27;;;7.70;;
2620;SDS011;1320;48.128;11.592;2023-02-15T09:36:33;9.60;;;7.60;;
2620;SDS011;1320;48.128;11.592;2023-02-15T09:39:10;10.73;;;6.40;;
2620;SDS011;1320;48.128;11.592;2023-02-15T09:47:07;14.27;;;7.57;;
2620;SDS011;1320;48.128;11.592;2023-02-15T10:00:30;13.07;;;7.93;;
2620;SDS011;1320;48.128;11.592;2023-02-15T10:05:36;8.20;;;7.40;;
2620;SDS011;1320;48.128;11.592;2023-02-15T10:13:47;8.40;;;7.13;;
2620;SDS011;1320;48.128;11.592;2023-02-15T10:19:21;9.90;;;7.80;;
2620;SDS011;1320;48.128;11.592;2023-02-15T10:27:37;15.17;;;7.70;;
2620;SDS011;1320;48.128;11.592;2023-02-15T10:30:13;7.93;;;7.13;;
2620;SDS011;1320;48.128;11.592;2023-02-15T10:43:33;9.60;;;8.70;;
2620;SDS011;1320;48.128;11.592;2023-02-15T10:46:22;16.33;;;9.67;;
2620;SDS011;1320;48.128;11.592;2023-02-15T11:08:42;10.60;;;7.57;;
2620;SDS011;1320;48.128;11.592;2023-02-15T11:11:21;18.07;;;8.43;;
2620;SDS011;1320;48.128;11.592;2023-02-15T11:13:53;11.67;;;7.80;;
2620;SDS011;1320;48.128;11.592;2023-02-15T11:16:34;14.57;;;10.00;;
2620;SDS011;1320;48.128;11.592;2023-02-15T11:22:28;10.40;;;8.23;;
2620;SDS011;1320;48.128;11.592;2023-02-15T11:24:55;12.47;;;8.80;;
2620;SDS011;1320;48.128;11.592;2023-02-15T11:27:25;13.13;;;9.17;;
2620;SDS011;1320;48.128;11.592;2023-02-15T11:30:05;13.23;;;9.47;;
2620;SDS011;1320;48.128;11.592;2023-02-15T11:32:58;11.50;;;8.73;;
2620;SDS011;1320;48.128;11.592;2023-02-15T11:35:38;11.20;;;7.87;;
2620;SDS011;1320;48.128;11.592;2023-02-15T11:38:24;13.80;;;8.80;;
2620;SDS011;1320;48.128;11.592;2023-02-15T11:40:55;12.30;;;9.30;;
2620;SDS011;1320;48.128;11.592;2023-02-15T11:43:33;10.83;;;8.50;;
2620;SDS011;1320;48.128;11.592;2023-02-15T11:46:04;10.10;;;8.03;;
2620;SDS011;1320;48.128;11.592;2023-02-15T11:48:31;11.97;;;8.97;;
2620;SDS011;1320;48.128;11.592;2023-02-15T11:50:57;16.47;;;10.33;;
2620;SDS011;1320;48.128;11.592;2023-02-15T11:53:24;11.57;;;8.30;;
2620;SDS011;1320;48.128;11.592;2023-02-15T11:55:57;12.33;;;9.10;;
2620;SDS011;1320;48.128;11.592;2023-02-15T11:58:25;13.80;;;10.53;;
2620;SDS011;1320;48.128;11.592;2023-02-15T12:11:54;14.10;;;9.73;;
2620;SDS011;1320;48.128;11.592;2023-02-15T12:14:51;10.50;;;9.37;;
2620;SDS011;1320;48.128;11.592;2023-02-15T12:17:21;10.23;;;8.23;;
2620;SDS011;1320;48.128;11.592;2023-02-15T12:19:50;15.55;;;10.25;;
2620;SDS011;1320;48.128;11.592;2023-02-15T12:22:25;16.90;;;11.43;;
2620;SDS011;1320;48.128;11.592;2023-02-15T12:24:58;18.07;;;9.03;;
2620;SDS011;1320;48.128;11.592;2023-02-15T12:27:29;13.90;;;9.60;;
2620;SDS011;1320;48.128;11.592;2023-02-15T12:32:34;16.03;;;8.50;;
2620;SDS011;1320;48.128;11.592;2023-02-15T12:35:18;10.83;;;8.73;;
2620;SDS011;1320;48.128;11.592;2023-02-15T12:37:55;12.60;;;9.00;;
2620;SDS011;1320;48.128;11.592;2023-02-15T12:40:36;12.50;;;8.90;;
2620;SDS011;1320;48.128;11.592;2023-02-15T12:43:03;14.15;;;10.55;;
2620;SDS011;1320;48.128;11.592;2023-02-15T12:45:35;12.80;;;9.90;;
2620;SDS011;1320;48.128;11.592;2023-02-15T12:50:42;12.40;;;8.57;;
2620;SDS011;1320;48.128;11.592;2023-02-15T12:53:22;9.97;;;8.13;;
2620;SDS011;1320;48.128;11.592;2023-02-15T12:56:03;10.10;;;8.23;;
2620;SDS011;1320;48.128;11.592;2023-02-15T12:58:34;8.83;;;7.73;;
2620;SDS011;1320;48.128;11.592;2023-02-15T13:01:19;12.40;;;9.47;;
2620;SDS011;1320;48.128;11.592;2023-02-15T13:03:57;9.17;;;7.97;;
2620;SDS011;1320;48.128;11.592;2023-02-15T13:06:26;7.97;;;7.17;;
2620;SDS011;1320;48.128;11.592;2023-02-15T13:08:54;12.50;;;7.10;;
2620;SDS011;1320;48.128;11.592;2023-02-15T13:11:29;12.17;;;8.47;;
2620;SDS011;1320;48.128;11.592;2023-02-15T13:14:44;12.30;;;8.13;;
2620;SDS011;1320;48.128;11.592;2023-02-15T13:16:56;8.70;;;7.27;;
2620;SDS011;1320;48.128;11.592;2023-02-15T13:19:34;9.97;;;6.73;;
2620;SDS011;1320;48.128;11.592;2023-02-15T13:22:13;11.27;;;9.03;;
2620;SDS011;1320;48.128;11.592;2023-02-15T13:24:43;10.83;;;8.43;;
2620;SDS011;1320;48.128;11.592;2023-02-15T13:27:15;11.07;;;8.73;;
2620;SDS011;1320;48.128;11.592;2023-02-15T13:29:44;14.20;;;9.17;;
2620;SDS011;1320;48.128;11.592;2023-02-15T13:32:12;12.80;;;7.80;;
2620;SDS011;1320;48.128;11.592;2023-02-15T13:34:48;12.23;;;7.73;;
2620;SDS011;1320;48.128;11.592;2023-02-15T13:37:18;11.67;;;9.03;;
2620;SDS011;1320;48.128;11.592;2023-02-15T13:40:13;12.20;;;8.23;;
2620;SDS011;1320;48.128;11.592;2023-02-15T13:42:48;9.97;;;7.70;;
2620;SDS011;1320;48.128;11.592;2023-02-15T13:48:06;12.70;;;8.30;;
2620;SDS011;1320;48.128;11.592;2023-02-15T13:59:57;7.90;;;7.10;;
2620;SDS011;1320;48.128;11.592;2023-02-15T14:02:33;10.83;;;9.00;;
2620;SDS011;1320;48.128;11.592;2023-02-15T14:10:49;8.90;;;7.53;;
2620;SDS011;1320;48.128;11.592;2023-02-15T14:16:45;8.60;;;6.67;;
2620;SDS011;1320;48.128;11.592;2023-02-15T14:21:50;9.57;;;7.93;;
2620;SDS011;1320;48.128;11.592;2023-02-15T14:31:55;10.60;;;7.90;;
2620;SDS011;1320;48.128;11.592;2023-02-15T14:34:46;11.83;;;8.90;;
2620;SDS011;1320;48.128;11.592;2023-02-15T14:43:30;11.00;;;7.53;;
2620;SDS011;1320;48.128;11.592;2023-02-15T14:46:19;9.93;;;8.30;;
2620;SDS011;1320;48.128;11.592;2023-02-15T14:48:56;10.73;;;9.10;;
2620;SDS011;1320;48.128;11.592;2023-02-15T14:54:11;10.70;;;8.10;;
2620;SDS011;1320;48.128;11.592;2023-02-15T15:02:29;14.60;;;10.90;;
2620;SDS011;1320;48.128;11.592;2023-02-15T15:05:15;12.33;;;9.87;;
2620;SDS011;1320;48.128;11.592;2023-02-15T15:07:57;14.13;;;8.67;;
2620;SDS011;1320;48.128;11.592;2023-02-15T15:12:59;10.37;;;8.47;;
2620;SDS011;1320;48.128;11.592;2023-02-15T15:16:23;10.37;;;8.80;;
2620;SDS011;1320;48.128;11.592;2023-02-15T15:18:48;12.63;;;8.10;;
2620;SDS011;1320;48.128;11.592;2023-02-15T15:32:59;14.13;;;9.97;;
2620;SDS011;1320;48.128;11.592;2023-02-15T15:41:54;11.30;;;8.57;;
2620;SDS011;1320;48.128;11.592;2023-02-15T15:47:33;10.20;;;8.67;;
2620;SDS011;1320;48.128;11.592;2023-02-15T15:50:18;10.53;;;8.60;;
2620;SDS011;1320;48.128;11.592;2023-02-15T15:52:54;13.50;;;9.10;;
2620;SDS011;1320;48.128;11.592;2023-02-15T15:55:23;13.27;;;9.00;;
2620;SDS011;1320;48.128;11.592;2023-02-15T15:58:09;11.97;;;9.23;;
2620;SDS011;1320;48.128;11.592;2023-02-15T16:03:16;14.17;;;8.30;;
2620;SDS011;1320;48.128;11.592;2023-02-15T16:05:49;11.13;;;6.80;;
2620;SDS011;1320;48.128;11.592;2023-02-15T16:10:55;13.30;;;9.77;;
2620;SDS011;1320;48.128;11.592;2023-02-15T16:13:22;12.30;;;9.40;;
2620;SDS011;1320;48.128;11.592;2023-02-15T16:15:50;11.97;;;9.50;;
2620;SDS011;1320;48.128;11.592;2023-02-15T16:18:18;13.70;;;9.33;;
2620;SDS011;1320;48.128;11.592;2023-02-15T16:28:38;13.97;;;9.40;;
2620;SDS011;1320;48.128;11.592;2023-02-15T16:31:05;11.05;;;7.90;;
2620;SDS011;1320;48.128;11.592;2023-02-15T16:33:41;12.73;;;9.07;;
2620;SDS011;1320;48.128;11.592;2023-02-15T16:36:24;14.98;;;8.98;;
2620;SDS011;1320;48.128;11.592;2023-02-15T16:41:32;13.23;;;7.95;;
2620;SDS011;1320;48.128;11.592;2023-02-15T16:43:59;13.43;;;8.63;;
2620;SDS011;1320;48.128;11.592;2023-02-15T16:46:31;14.23;;;9.38;;
2620;SDS011;1320;48.128;11.592;2023-02-15T16:49:05;13.00;;;8.68;;
2620;SDS011;1320;48.128;11.592;2023-02-15T16:51:53;12.38;;;8.57;;
2620;SDS011;1320;48.128;11.592;2023-02-15T16:54:20;14.63;;;8.23;;
2620;SDS011;1320;48.128;11.592;2023-02-15T16:56:47;11.45;;;7.55;;
2620;SDS011;1320;48.128;11.592;2023-02-15T16:59:21;11.50;;;7.50;;
2620;SDS011;1320;48.128;11.592;2023-02-15T17:01:49;12.68;;;8.57;;
2620;SDS011;1320;48.128;11.592;2023-02-15T17:06:57;18.67;;;8.05;;
2620;SDS011;1320;48.128;11.592;2023-02-15T17:09:26;15.27;;;9.32;;
2620;SDS011;1320;48.128;11.592;2023-02-15T17:11:51;11.40;;;8.17;;
2620;SDS011;1320;48.128;11.592;2023-02-15T17:14:19;13.63;;;7.15;;
2620;SDS011;1320;48.128;11.592;2023-02-15T17:16:49;19.77;;;8.60;;
2620;SDS011;1320;48.128;11.592;2023-02-15T17:19:23;10.73;;;7.50;;
2620;SDS011;1320;48.128;11.592;2023-02-15T17:21:58;12.35;;;7.93;;
2620;SDS011;1320;48.128;11.592;2023-02-15T17:27:02;12.68;;;7.90;;
2620;SDS011;1320;48.128;11.592;2023-02-15T17:29:36;16.27;;;9.13;;
2620;SDS011;1320;48.128;11.592;2023-02-15T17:32:05;13.43;;;7.65;;
2620;SDS011;1320;48.128;11.592;2023-02-15T17:37:10;12.93;;;7.70;;
2620;SDS011;1320;48.128;11.592;2023-02-15T17:39:37;11.35;;;7.55;;
2620;SDS011;1320;48.128;11.592;2023-02-15T17:42:03;11.97;;;7.93;;
2620;SDS011;1320;48.128;11.592;2023-02-15T17:44:28;8.93;;;7.53;;
2620;SDS011;1320;48.128;11.592;2023-02-15T17:46:54;17.13;;;9.70;;
2620;SDS011;1320;48.128;11.592;2023-02-15T17:49:24;17.00;;;9.60;;
2620;SDS011;1320;48.128;11.592;2023-02-15T17:52:01;12.45;;;8.48;;
2620;SDS011;1320;48.128;11.592;2023-02-15T17:54:27;20.70;;;9.23;;
2620;SDS011;1320;48.128;11.592;2023-02-15T17:57:12;10.00;;;7.40;;
2620;SDS011;1320;48.128;11.592;2023-02-15T17:59:39;12.48;;;8.40;;
2620;SDS011;1320;48.128;11.592;2023-02-15T18:02:24;12.07;;;7.90;;
2620;SDS011;1320;48.128;11.592;2023-02-15T18:05:12;10.57;;;7.63;;
2620;SDS011;1320;48.128;11.592;2023-02-15T18:07:57;10.70;;;6.78;;
2620;SDS011;1320;48.128;11.592;2023-02-15T18:10:43;13.15;;;6.97;;
2620;SDS011;1320;48.128;11.592;2023-02-15T18:13:28;12.52;;;7.80;;
2620;SDS011;1320;48.128;11.592;2023-02-15T18:15:53;10.17;;;7.20;;
2620;SDS011;1320;48.128;11.592;2023-02-15T18:18:20;7.93;;;6.63;;
2620;SDS011;1320;48.128;11.592;2023-02-15T18:20:48;9.77;;;7.63;;
2620;SDS011;1320;48.128;11.592;2023-02-15T18:23:14;10.20;;;6.85;;
2620;SDS011;1320;48.128;11.592;2023-02-15T18:25:40;16.00;;;7.10;;
2620;SDS011;1320;48.128;11.592;2023-02-15T18:28:07;10.05;;;6.82;;
2620;SDS011;1320;48.128;11.592;2023-02-15T18:30:34;8.82;;;6.85;;
2620;SDS011;1320;48.128;11.592;2023-02-15T18:33:00;11.88;;;8.02;;
2620;SDS011;1320;48.128;11.592;2023-02-15T18:35:30;10.10;;;7.60;;
2620;SDS011;1320;48.128;11.592;2023-02-15T18:37:57;11.98;;;8.50;;
2620;SDS011;1320;48.128;11.592;2023-02-15T18:40:25;11.05;;;7.00;;
2620;SDS011;1320;48.128;11.592;2023-02-15T18:42:51;11.43;;;8.27;;
2620;SDS011;1320;48.128;11.592;2023-02-15T18:45:25;13.18;;;7.50;;
2620;SDS011;1320;48.128;11.592;2023-02-15T18:47:56;12.88;;;8.85;;